sensor_id;sensor_type;location;lat;lon;timestamp;temperature;humidity
3578;DHT22;1803;48.494;9.696;2022-07-22T03:01:04;16.40;99.90
3578;DHT22;1803;48.494;9.696;2022-07-22T03:03:30;16.40;99.90
3578;DHT22;1803;48.494;9.696;2022-07-22T03:05:55;16.30;99.90
3578;DHT22;1803;48.494;9.696;2022-07-22T03:08:21;16.30;99.90
3578;DHT22;1803;48.494;9.696;2022-07-22T03:10:46;16.20;99.90
3578;DHT22;1803;48.494;9.696;2022-07-22T03:13:12;16.20;99.90
3578;DHT22;1803;48.494;9.696;2022-07-22T03:15:37;16.20;99.90
3578;DHT22;1803;48.494;9.696;2022-07-22T03:18:03;16.20;99.90
3578;DHT22;1803;48.494;9.696;2022-07-22T03:20:28;16.20;99.90
3578;DHT22;1803;48.494;9.696;2022-07-22T03:22:53;16.20;99.90
3578;DHT22;1803;48.494;9.696;2022-07-22T03:25:19;16.20;99.90
3578;DHT22;1803;48.494;9.696;2022-07-22T03:27:44;16.20;99.90
3578;DHT22;1803;48.494;9.696;2022-07-22T03:30:10;16.20;99.90
3578;DHT22;1803;48.494;9.696;2022-07-22T03:32:36;16.20;99.90
3578;DHT22;1803;48.494;9.696;2022-07-22T03:35:01;16.20;99.90
3578;DHT22;1803;48.494;9.696;2022-07-22T03:37:27;16.30;99.90
3578;DHT22;1803;48.494;9.696;2022-07-22T03:39:52;16.30;99.90
3578;DHT22;1803;48.494;9.696;2022-07-22T03:42:18;16.30;99.90
3578;DHT22;1803;48.494;9.696;2022-07-22T03:44:43;16.20;99.90
3578;DHT22;1803;48.494;9.696;2022-07-22T03:47:09;16.20;99.90
3578;DHT22;1803;48.494;9.696;2022-07-22T03:49:34;16.20;99.90
3578;DHT22;1803;48.494;9.696;2022-07-22T03:52:00;16.20;99.90
3578;DHT22;1803;48.494;9.696;2022-07-22T03:54:25;16.20;99.90
3578;DHT22;1803;48.494;9.696;2022-07-22T03:56:50;16.30;99.90
3578;DHT22;1803;48.494;9.696;2022-07-22T03:59:16;16.20;99.90
3578;DHT22;1803;48.494;9.696;2022-07-22T04:01:42;16.30;99.90
3578;DHT22;1803;48.494;9.696;2022-07-22T04:04:08;16.30;99.90
3578;DHT22;1803;48.494;9.696;2022-07-22T04:06:33;16.30;99.90
3578;DHT22;1803;48.494;9.696;2022-07-22T04:08:59;16.40;99.90
3578;DHT22;1803;48.494;9.696;2022-07-22T04:11:24;16.40;99.90
3578;DHT22;1803;48.494;9.696;2022-07-22T04:13:50;16.40;99.90
3578;DHT22;1803;48.494;9.696;2022-07-22T04:16:15;16.40;99.90
3578;DHT22;1803;48.494;9.696;2022-07-22T04:18:41;16.50;99.90
3578;DHT22;1803;48.494;9.696;2022-07-22T04:21:06;16.50;99.90
3578;DHT22;1803;48.494;9.696;2022-07-22T04:23:32;16.60;99.90
3578;DHT22;1803;48.494;9.696;2022-07-22T04:25:57;16.70;99.90
3578;DHT22;1803;48.494;9.696;2022-07-22T04:28:23;16.70;99.90
3578;DHT22;1803;48.494;9.696;2022-07-22T04:30:48;16.80;99.90
3578;DHT22;1803;48.494;9.696;2022-07-22T04:33:14;16.80;99.90
3578;DHT22;1803;48.494;9.696;2022-07-22T04:35:39;16.90;99.90
3578;DHT22;1803;48.494;9.696;2022-07-22T04:38:05;17.00;99.90
3578;DHT22;1803;48.494;9.696;2022-07-22T04:40:30;17.00;99.90
3578;DHT22;1803;48.494;9.696;2022-07-22T04:42:55;17.10;99.90
3578;DHT22;1803;48.494;9.696;2022-07-22T04:45:21;17.20;99.90
3578;DHT22;1803;48.494;9.696;2022-07-22T04:47:46;17.30;99.90
3578;DHT22;1803;48.494;9.696;2022-07-22T04:50:12;17.40;99.90
3578;DHT22;1803;48.494;9.696;2022-07-22T04:52:37;17.60;99.90
3578;DHT22;1803;48.494;9.696;2022-07-22T04:55:03;17.70;99.90
3578;DHT22;1803;48.494;9.696;2022-07-22T04:57:28;17.80;99.90
3578;DHT22;1803;48.494;9.696;2022-07-22T04:59:54;17.90;99.90
3578;DHT22;1803;48.494;9.696;2022-07-22T05:02:19;18.10;99.90
3578;DHT22;1803;48.494;9.696;2022-07-22T05:04:45;18.80;99.90
3578;DHT22;1803;48.494;9.696;2022-07-22T05:07:10;21.50;99.90
3578;DHT22;1803;48.494;9.696;2022-07-22T05:09:36;24.00;99.90
3578;DHT22;1803;48.494;9.696;2022-07-22T05:12:02;26.10;99.90
3578;DHT22;1803;48.494;9.696;2022-07-22T05:14:28;27.60;99.90
3578;DHT22;1803;48.494;9.696;2022-07-22T05:16:53;29.00;99.90
3578;DHT22;1803;48.494;9.696;2022-07-22T05:19:18;29.50;99.90
3578;DHT22;1803;48.494;9.696;2022-07-22T05:21:44;28.60;99.90
3578;DHT22;1803;48.494;9.696;2022-07-22T05:24:10;27.30;99.90
3578;DHT22;1803;48.494;9.696;2022-07-22T05:26:35;26.40;99.90
3578;DHT22;1803;48.494;9.696;2022-07-22T05:29:01;25.80;99.90
3578;DHT22;1803;48.494;9.696;2022-07-22T05:31:26;25.60;99.90
3578;DHT22;1803;48.494;9.696;2022-07-22T05:33:52;25.70;99.90
3578;DHT22;1803;48.494;9.696;2022-07-22T05:36:17;26.00;99.90
3578;DHT22;1803;48.494;9.696;2022-07-22T05:38:43;27.00;99.90
3578;DHT22;1803;48.494;9.696;2022-07-22T05:41:08;29.70;99.90
3578;DHT22;1803;48.494;9.696;2022-07-22T05:43:34;32.70;92.30
3578;DHT22;1803;48.494;9.696;2022-07-22T05:45:59;34.60;81.40
3578;DHT22;1803;48.494;9.696;2022-07-22T05:48:24;36.00;69.40
3578;DHT22;1803;48.494;9.696;2022-07-22T05:50:50;37.10;63.00
3578;DHT22;1803;48.494;9.696;2022-07-22T05:53:15;38.20;58.10
3578;DHT22;1803;48.494;9.696;2022-07-22T05:55:41;38.90;54.70
3578;DHT22;1803;48.494;9.696;2022-07-22T05:58:06;39.60;53.80
3578;DHT22;1803;48.494;9.696;2022-07-22T06:00:32;40.10;50.50
3578;DHT22;1803;48.494;9.696;2022-07-22T06:02:57;40.90;51.10
3578;DHT22;1803;48.494;9.696;2022-07-22T06:05:23;41.40;47.80
3578;DHT22;1803;48.494;9.696;2022-07-22T06:07:48;41.90;47.00
3578;DHT22;1803;48.494;9.696;2022-07-22T06:10:14;42.30;45.60
3578;DHT22;1803;48.494;9.696;2022-07-22T06:12:39;42.10;44.80
3578;DHT22;1803;48.494;9.696;2022-07-22T06:15:05;42.40;45.30
3578;DHT22;1803;48.494;9.696;2022-07-22T06:17:31;42.90;43.90
3578;DHT22;1803;48.494;9.696;2022-07-22T06:19:56;43.40;43.30
3578;DHT22;1803;48.494;9.696;2022-07-22T06:22:22;43.90;41.70
3578;DHT22;1803;48.494;9.696;2022-07-22T06:24:47;44.10;41.40
3578;DHT22;1803;48.494;9.696;2022-07-22T06:27:13;44.60;40.70
3578;DHT22;1803;48.494;9.696;2022-07-22T06:29:39;44.90;39.00
3578;DHT22;1803;48.494;9.696;2022-07-22T06:32:05;45.10;39.70
3578;DHT22;1803;48.494;9.696;2022-07-22T06:34:31;45.40;38.90
3578;DHT22;1803;48.494;9.696;2022-07-22T06:36:56;45.50;38.60
3578;DHT22;1803;48.494;9.696;2022-07-22T06:39:22;45.70;38.30
3578;DHT22;1803;48.494;9.696;2022-07-22T06:41:47;46.10;37.70
3578;DHT22;1803;48.494;9.696;2022-07-22T06:44:12;46.30;37.30
3578;DHT22;1803;48.494;9.696;2022-07-22T06:46:38;46.20;36.70
3578;DHT22;1803;48.494;9.696;2022-07-22T06:49:03;46.10;36.50
3578;DHT22;1803;48.494;9.696;2022-07-22T06:51:29;45.90;36.40
3578;DHT22;1803;48.494;9.696;2022-07-22T06:53:55;46.50;36.40
3578;DHT22;1803;48.494;9.696;2022-07-22T06:56:20;46.10;35.50
3578;DHT22;1803;48.494;9.696;2022-07-22T06:58:46;46.00;35.40
3578;DHT22;1803;48.494;9.696;2022-07-22T07:01:11;46.20;35.90
3578;DHT22;1803;48.494;9.696;2022-07-22T07:03:37;46.80;36.90
3578;DHT22;1803;48.494;9.696;2022-07-22T07:06:03;47.20;34.90
3578;DHT22;1803;48.494;9.696;2022-07-22T07:08:28;47.20;34.50
3578;DHT22;1803;48.494;9.696;2022-07-22T07:10:54;47.10;34.30
3578;DHT22;1803;48.494;9.696;2022-07-22T07:13:19;46.90;34.30
3578;DHT22;1803;48.494;9.696;2022-07-22T07:15:45;46.80;35.30
3578;DHT22;1803;48.494;9.696;2022-07-22T07:18:10;47.20;34.40
3578;DHT22;1803;48.494;9.696;2022-07-22T07:20:36;47.70;34.70
3578;DHT22;1803;48.494;9.696;2022-07-22T07:23:02;47.50;33.70
3578;DHT22;1803;48.494;9.696;2022-07-22T07:25:27;47.60;34.60
3578;DHT22;1803;48.494;9.696;2022-07-22T07:27:53;47.90;33.20
3578;DHT22;1803;48.494;9.696;2022-07-22T07:30:18;48.00;32.90
3578;DHT22;1803;48.494;9.696;2022-07-22T07:32:44;48.20;33.20
3578;DHT22;1803;48.494;9.696;2022-07-22T07:35:10;48.20;33.30
3578;DHT22;1803;48.494;9.696;2022-07-22T07:37:36;48.20;33.30
3578;DHT22;1803;48.494;9.696;2022-07-22T07:40:01;47.90;32.40
3578;DHT22;1803;48.494;9.696;2022-07-22T07:42:27;47.50;32.20
3578;DHT22;1803;48.494;9.696;2022-07-22T07:44:52;47.90;32.50
3578;DHT22;1803;48.494;9.696;2022-07-22T07:47:19;47.70;32.20
3578;DHT22;1803;48.494;9.696;2022-07-22T07:49:48;47.60;32.40
3578;DHT22;1803;48.494;9.696;2022-07-22T07:52:14;47.10;32.30
3578;DHT22;1803;48.494;9.696;2022-07-22T07:54:40;46.40;32.60
3578;DHT22;1803;48.494;9.696;2022-07-22T07:57:06;46.30;33.60
3578;DHT22;1803;48.494;9.696;2022-07-22T07:59:32;46.50;32.50
3578;DHT22;1803;48.494;9.696;2022-07-22T08:01:57;46.60;33.30
3578;DHT22;1803;48.494;9.696;2022-07-22T08:04:23;46.50;32.30
3578;DHT22;1803;48.494;9.696;2022-07-22T08:06:48;46.20;32.30
3578;DHT22;1803;48.494;9.696;2022-07-22T08:09:14;45.70;32.60
3578;DHT22;1803;48.494;9.696;2022-07-22T08:11:39;45.40;33.10
3578;DHT22;1803;48.494;9.696;2022-07-22T08:14:05;45.30;34.20
3578;DHT22;1803;48.494;9.696;2022-07-22T08:16:30;45.20;34.90
3578;DHT22;1803;48.494;9.696;2022-07-22T08:18:56;44.80;33.70
3578;DHT22;1803;48.494;9.696;2022-07-22T08:21:21;43.80;34.40
3578;DHT22;1803;48.494;9.696;2022-07-22T08:23:47;43.10;35.80
3578;DHT22;1803;48.494;9.696;2022-07-22T08:26:13;42.80;36.20
3578;DHT22;1803;48.494;9.696;2022-07-22T08:28:38;42.60;36.50
3578;DHT22;1803;48.494;9.696;2022-07-22T08:31:04;42.90;37.40
3578;DHT22;1803;48.494;9.696;2022-07-22T08:33:29;42.70;36.60
3578;DHT22;1803;48.494;9.696;2022-07-22T08:35:55;42.40;37.10
3578;DHT22;1803;48.494;9.696;2022-07-22T08:38:20;42.20;38.10
3578;DHT22;1803;48.494;9.696;2022-07-22T08:40:46;41.90;38.50
3578;DHT22;1803;48.494;9.696;2022-07-22T08:43:12;40.80;39.10
3578;DHT22;1803;48.494;9.696;2022-07-22T08:45:38;39.40;40.80
3578;DHT22;1803;48.494;9.696;2022-07-22T08:48:04;37.90;42.00
3578;DHT22;1803;48.494;9.696;2022-07-22T08:50:30;36.50;44.20
3578;DHT22;1803;48.494;9.696;2022-07-22T08:52:56;35.60;46.00
3578;DHT22;1803;48.494;9.696;2022-07-22T08:55:22;34.80;46.00
3578;DHT22;1803;48.494;9.696;2022-07-22T08:57:48;34.30;47.30
3578;DHT22;1803;48.494;9.696;2022-07-22T09:00:15;33.80;48.90
3578;DHT22;1803;48.494;9.696;2022-07-22T09:02:41;33.50;48.50
3578;DHT22;1803;48.494;9.696;2022-07-22T09:05:08;33.40;49.60
3578;DHT22;1803;48.494;9.696;2022-07-22T09:10:00;33.10;49.10
3578;DHT22;1803;48.494;9.696;2022-07-22T09:12:26;33.00;49.40
3578;DHT22;1803;48.494;9.696;2022-07-22T09:14:58;33.10;50.10
3578;DHT22;1803;48.494;9.696;2022-07-22T09:17:24;33.30;50.50
3578;DHT22;1803;48.494;9.696;2022-07-22T09:19:50;33.10;49.70
3578;DHT22;1803;48.494;9.696;2022-07-22T09:27:44;32.80;50.90
3578;DHT22;1803;48.494;9.696;2022-07-22T09:30:11;32.90;50.70
3578;DHT22;1803;48.494;9.696;2022-07-22T09:32:41;32.80;50.70
3578;DHT22;1803;48.494;9.696;2022-07-22T09:35:07;32.70;51.20
3578;DHT22;1803;48.494;9.696;2022-07-22T09:37:33;32.80;51.00
3578;DHT22;1803;48.494;9.696;2022-07-22T09:40:14;32.50;50.80
3578;DHT22;1803;48.494;9.696;2022-07-22T09:42:44;32.70;51.10
3578;DHT22;1803;48.494;9.696;2022-07-22T09:45:10;32.50;51.20
3578;DHT22;1803;48.494;9.696;2022-07-22T09:47:35;32.80;51.40
3578;DHT22;1803;48.494;9.696;2022-07-22T09:50:06;32.80;51.70
3578;DHT22;1803;48.494;9.696;2022-07-22T09:52:39;32.90;51.20
3578;DHT22;1803;48.494;9.696;2022-07-22T09:55:06;33.10;50.90
3578;DHT22;1803;48.494;9.696;2022-07-22T09:57:32;33.00;50.40
3578;DHT22;1803;48.494;9.696;2022-07-22T09:59:57;32.90;50.70
3578;DHT22;1803;48.494;9.696;2022-07-22T10:02:22;32.90;50.80
3578;DHT22;1803;48.494;9.696;2022-07-22T10:04:48;32.80;50.90
3578;DHT22;1803;48.494;9.696;2022-07-22T10:07:14;32.80;50.60
3578;DHT22;1803;48.494;9.696;2022-07-22T10:09:39;32.80;51.20
3578;DHT22;1803;48.494;9.696;2022-07-22T10:12:06;32.90;51.40
3578;DHT22;1803;48.494;9.696;2022-07-22T10:14:32;33.10;50.80
3578;DHT22;1803;48.494;9.696;2022-07-22T10:16:58;33.20;51.60
3578;DHT22;1803;48.494;9.696;2022-07-22T10:19:23;32.80;50.50
3578;DHT22;1803;48.494;9.696;2022-07-22T10:21:49;32.90;51.40
3578;DHT22;1803;48.494;9.696;2022-07-22T10:24:15;33.10;49.80
3578;DHT22;1803;48.494;9.696;2022-07-22T10:26:55;33.20;50.20
3578;DHT22;1803;48.494;9.696;2022-07-22T10:29:24;33.10;49.10
3578;DHT22;1803;48.494;9.696;2022-07-22T10:32:11;33.30;50.20
3578;DHT22;1803;48.494;9.696;2022-07-22T10:34:36;33.20;50.20
3578;DHT22;1803;48.494;9.696;2022-07-22T10:37:02;33.10;49.60
3578;DHT22;1803;48.494;9.696;2022-07-22T10:39:27;32.90;48.70
3578;DHT22;1803;48.494;9.696;2022-07-22T10:41:53;32.70;49.50
3578;DHT22;1803;48.494;9.696;2022-07-22T10:47:02;32.90;50.10
3578;DHT22;1803;48.494;9.696;2022-07-22T10:49:28;32.80;51.20
3578;DHT22;1803;48.494;9.696;2022-07-22T10:52:12;33.00;50.30
3578;DHT22;1803;48.494;9.696;2022-07-22T10:57:32;32.90;50.00
3578;DHT22;1803;48.494;9.696;2022-07-22T10:59:57;32.70;50.10
3578;DHT22;1803;48.494;9.696;2022-07-22T11:02:23;32.50;49.60
3578;DHT22;1803;48.494;9.696;2022-07-22T11:04:49;32.00;50.00
3578;DHT22;1803;48.494;9.696;2022-07-22T11:07:14;32.00;50.80
3578;DHT22;1803;48.494;9.696;2022-07-22T11:09:39;32.40;51.90
3578;DHT22;1803;48.494;9.696;2022-07-22T11:12:11;32.70;51.30
3578;DHT22;1803;48.494;9.696;2022-07-22T11:14:37;32.70;49.70
3578;DHT22;1803;48.494;9.696;2022-07-22T11:17:06;32.60;48.80
3578;DHT22;1803;48.494;9.696;2022-07-22T11:19:33;32.60;48.70
3578;DHT22;1803;48.494;9.696;2022-07-22T11:21:59;32.50;49.00
3578;DHT22;1803;48.494;9.696;2022-07-22T11:24:27;32.50;48.80
3578;DHT22;1803;48.494;9.696;2022-07-22T11:26:54;32.60;49.80
3578;DHT22;1803;48.494;9.696;2022-07-22T11:29:30;32.50;49.50
3578;DHT22;1803;48.494;9.696;2022-07-22T11:31:56;32.60;49.70
3578;DHT22;1803;48.494;9.696;2022-07-22T11:34:22;32.40;50.50
3578;DHT22;1803;48.494;9.696;2022-07-22T11:36:48;32.10;50.50
3578;DHT22;1803;48.494;9.696;2022-07-22T11:39:16;31.90;50.60
3578;DHT22;1803;48.494;9.696;2022-07-22T11:41:42;31.90;50.40
3578;DHT22;1803;48.494;9.696;2022-07-22T11:44:08;32.00;50.60
3578;DHT22;1803;48.494;9.696;2022-07-22T11:46:35;31.90;50.60
3578;DHT22;1803;48.494;9.696;2022-07-22T11:49:00;31.60;50.90
3578;DHT22;1803;48.494;9.696;2022-07-22T11:51:29;31.60;51.10
3578;DHT22;1803;48.494;9.696;2022-07-22T11:53:55;31.60;53.20
3578;DHT22;1803;48.494;9.696;2022-07-22T11:56:21;31.80;52.10
3578;DHT22;1803;48.494;9.696;2022-07-22T11:58:47;31.80;50.80
3578;DHT22;1803;48.494;9.696;2022-07-22T12:01:15;31.50;51.20
3578;DHT22;1803;48.494;9.696;2022-07-22T12:03:42;31.40;51.00
3578;DHT22;1803;48.494;9.696;2022-07-22T12:06:10;31.10;50.20
3578;DHT22;1803;48.494;9.696;2022-07-22T12:08:40;31.30;52.10
3578;DHT22;1803;48.494;9.696;2022-07-22T12:11:07;31.40;52.30
3578;DHT22;1803;48.494;9.696;2022-07-22T12:13:33;31.40;50.50
3578;DHT22;1803;48.494;9.696;2022-07-22T12:15:58;31.50;51.70
3578;DHT22;1803;48.494;9.696;2022-07-22T12:18:24;31.40;51.80
3578;DHT22;1803;48.494;9.696;2022-07-22T12:20:50;31.40;51.20
3578;DHT22;1803;48.494;9.696;2022-07-22T12:23:17;31.40;51.90
3578;DHT22;1803;48.494;9.696;2022-07-22T12:25:49;31.20;50.60
3578;DHT22;1803;48.494;9.696;2022-07-22T12:28:14;31.10;51.80
3578;DHT22;1803;48.494;9.696;2022-07-22T12:30:40;31.00;50.90
3578;DHT22;1803;48.494;9.696;2022-07-22T12:33:12;30.80;50.50
3578;DHT22;1803;48.494;9.696;2022-07-22T12:35:38;30.80;52.50
3578;DHT22;1803;48.494;9.696;2022-07-22T12:38:07;31.00;52.10
3578;DHT22;1803;48.494;9.696;2022-07-22T12:40:33;30.90;50.30
3578;DHT22;1803;48.494;9.696;2022-07-22T12:42:59;30.90;51.20
3578;DHT22;1803;48.494;9.696;2022-07-22T12:45:25;31.00;50.90
3578;DHT22;1803;48.494;9.696;2022-07-22T12:47:55;31.20;51.00
3578;DHT22;1803;48.494;9.696;2022-07-22T12:50:29;31.10;50.20
3578;DHT22;1803;48.494;9.696;2022-07-22T12:52:58;30.90;50.50
3578;DHT22;1803;48.494;9.696;2022-07-22T12:55:25;30.80;51.20
3578;DHT22;1803;48.494;9.696;2022-07-22T12:57:50;30.80;52.00
3578;DHT22;1803;48.494;9.696;2022-07-22T13:00:17;30.70;50.40
3578;DHT22;1803;48.494;9.696;2022-07-22T13:02:42;30.50;50.60
3578;DHT22;1803;48.494;9.696;2022-07-22T13:05:08;30.40;50.10
3578;DHT22;1803;48.494;9.696;2022-07-22T13:07:33;30.40;50.60
3578;DHT22;1803;48.494;9.696;2022-07-22T13:09:59;30.50;51.90
3578;DHT22;1803;48.494;9.696;2022-07-22T13:12:24;30.70;53.50
3578;DHT22;1803;48.494;9.696;2022-07-22T13:14:49;30.60;49.80
3578;DHT22;1803;48.494;9.696;2022-07-22T13:17:15;30.50;48.60
3578;DHT22;1803;48.494;9.696;2022-07-22T13:19:40;30.50;51.50
3578;DHT22;1803;48.494;9.696;2022-07-22T13:22:06;30.50;50.20
3578;DHT22;1803;48.494;9.696;2022-07-22T13:24:31;30.40;49.80
3578;DHT22;1803;48.494;9.696;2022-07-22T13:26:57;30.40;50.20
3578;DHT22;1803;48.494;9.696;2022-07-22T13:29:22;30.40;50.50
3578;DHT22;1803;48.494;9.696;2022-07-22T13:31:48;30.30;50.00
3578;DHT22;1803;48.494;9.696;2022-07-22T13:34:14;30.30;50.10
3578;DHT22;1803;48.494;9.696;2022-07-22T13:36:40;30.20;49.20
3578;DHT22;1803;48.494;9.696;2022-07-22T13:39:05;30.10;49.80
3578;DHT22;1803;48.494;9.696;2022-07-22T13:41:31;30.20;50.60
3578;DHT22;1803;48.494;9.696;2022-07-22T13:43:56;30.10;49.40
3578;DHT22;1803;48.494;9.696;2022-07-22T13:46:21;30.00;49.80
3578;DHT22;1803;48.494;9.696;2022-07-22T13:48:47;30.00;50.90
3578;DHT22;1803;48.494;9.696;2022-07-22T13:51:12;29.90;50.80
3578;DHT22;1803;48.494;9.696;2022-07-22T13:53:39;29.90;50.60
3578;DHT22;1803;48.494;9.696;2022-07-22T13:56:05;29.90;51.00
3578;DHT22;1803;48.494;9.696;2022-07-22T13:58:30;30.00;53.50
3578;DHT22;1803;48.494;9.696;2022-07-22T14:00:56;30.10;51.90
3578;DHT22;1803;48.494;9.696;2022-07-22T14:03:21;30.10;50.40
3578;DHT22;1803;48.494;9.696;2022-07-22T14:05:47;30.00;50.20
3578;DHT22;1803;48.494;9.696;2022-07-22T14:08:12;30.00;50.50
3578;DHT22;1803;48.494;9.696;2022-07-22T14:10:38;30.00;49.40
3578;DHT22;1803;48.494;9.696;2022-07-22T14:13:03;29.90;50.50
3578;DHT22;1803;48.494;9.696;2022-07-22T14:15:32;29.90;50.60
3578;DHT22;1803;48.494;9.696;2022-07-22T14:17:57;29.90;50.80
3578;DHT22;1803;48.494;9.696;2022-07-22T14:20:23;29.90;49.50
3578;DHT22;1803;48.494;9.696;2022-07-22T14:22:48;29.80;49.60
3578;DHT22;1803;48.494;9.696;2022-07-22T14:25:14;29.90;50.30
3578;DHT22;1803;48.494;9.696;2022-07-22T14:27:39;29.90;50.20
3578;DHT22;1803;48.494;9.696;2022-07-22T14:30:05;29.90;51.00
3578;DHT22;1803;48.494;9.696;2022-07-22T14:32:30;29.80;50.50
3578;DHT22;1803;48.494;9.696;2022-07-22T14:34:56;29.80;50.40
3578;DHT22;1803;48.494;9.696;2022-07-22T14:37:21;29.60;49.80
3578;DHT22;1803;48.494;9.696;2022-07-22T14:39:47;29.60;49.70
3578;DHT22;1803;48.494;9.696;2022-07-22T14:42:13;29.60;51.40
3578;DHT22;1803;48.494;9.696;2022-07-22T14:44:38;29.60;52.10
3578;DHT22;1803;48.494;9.696;2022-07-22T14:47:03;29.70;51.70
3578;DHT22;1803;48.494;9.696;2022-07-22T14:49:29;29.60;50.80
3578;DHT22;1803;48.494;9.696;2022-07-22T14:51:54;29.50;50.40
3578;DHT22;1803;48.494;9.696;2022-07-22T14:54:20;29.50;51.30
3578;DHT22;1803;48.494;9.696;2022-07-22T14:56:45;29.50;51.80
3578;DHT22;1803;48.494;9.696;2022-07-22T14:59:11;29.50;51.30
3578;DHT22;1803;48.494;9.696;2022-07-22T15:01:36;29.50;52.20
3578;DHT22;1803;48.494;9.696;2022-07-22T15:04:02;29.60;52.40
3578;DHT22;1803;48.494;9.696;2022-07-22T15:06:28;29.60;51.30
3578;DHT22;1803;48.494;9.696;2022-07-22T15:08:53;29.60;51.80
3578;DHT22;1803;48.494;9.696;2022-07-22T15:11:19;29.60;52.40
3578;DHT22;1803;48.494;9.696;2022-07-22T15:13:44;29.50;51.50
3578;DHT22;1803;48.494;9.696;2022-07-22T15:16:10;29.50;52.40
3578;DHT22;1803;48.494;9.696;2022-07-22T15:18:36;29.60;52.00
3578;DHT22;1803;48.494;9.696;2022-07-22T15:21:01;29.60;51.20
3578;DHT22;1803;48.494;9.696;2022-07-22T15:23:27;29.60;52.30
3578;DHT22;1803;48.494;9.696;2022-07-22T15:25:54;29.60;51.70
3578;DHT22;1803;48.494;9.696;2022-07-22T15:28:20;29.50;51.60
3578;DHT22;1803;48.494;9.696;2022-07-22T15:30:45;29.30;52.00
3578;DHT22;1803;48.494;9.696;2022-07-22T15:33:11;29.20;52.80
3578;DHT22;1803;48.494;9.696;2022-07-22T15:35:36;29.10;53.10
3578;DHT22;1803;48.494;9.696;2022-07-22T15:38:01;29.00;54.30
3578;DHT22;1803;48.494;9.696;2022-07-22T15:40:27;28.90;55.50
3578;DHT22;1803;48.494;9.696;2022-07-22T15:42:52;28.80;53.10
3578;DHT22;1803;48.494;9.696;2022-07-22T15:45:18;28.80;52.70
3578;DHT22;1803;48.494;9.696;2022-07-22T15:47:43;28.80;52.60
3578;DHT22;1803;48.494;9.696;2022-07-22T15:50:09;28.80;52.60
3578;DHT22;1803;48.494;9.696;2022-07-22T15:52:34;28.80;53.20
3578;DHT22;1803;48.494;9.696;2022-07-22T15:55:00;28.80;52.90
3578;DHT22;1803;48.494;9.696;2022-07-22T15:57:25;28.80;52.30
3578;DHT22;1803;48.494;9.696;2022-07-22T16:00:10;28.70;52.70
3578;DHT22;1803;48.494;9.696;2022-07-22T16:02:35;28.70;52.70
3578;DHT22;1803;48.494;9.696;2022-07-22T16:05:01;28.80;53.10
3578;DHT22;1803;48.494;9.696;2022-07-22T16:07:26;28.80;53.00
3578;DHT22;1803;48.494;9.696;2022-07-22T16:09:52;28.80;53.30
3578;DHT22;1803;48.494;9.696;2022-07-22T16:12:17;28.70;53.70
3578;DHT22;1803;48.494;9.696;2022-07-22T16:14:43;28.70;53.20
3578;DHT22;1803;48.494;9.696;2022-07-22T16:17:08;28.70;52.80
3578;DHT22;1803;48.494;9.696;2022-07-22T16:19:33;28.60;53.50
3578;DHT22;1803;48.494;9.696;2022-07-22T16:21:59;28.50;52.90
3578;DHT22;1803;48.494;9.696;2022-07-22T16:24:24;28.40;52.90
3578;DHT22;1803;48.494;9.696;2022-07-22T16:26:50;28.40;52.70
3578;DHT22;1803;48.494;9.696;2022-07-22T16:29:15;28.40;53.10
3578;DHT22;1803;48.494;9.696;2022-07-22T16:31:41;28.40;53.00
3578;DHT22;1803;48.494;9.696;2022-07-22T16:34:06;28.40;52.70
3578;DHT22;1803;48.494;9.696;2022-07-22T16:36:32;28.40;52.40
3578;DHT22;1803;48.494;9.696;2022-07-22T16:38:57;28.50;52.40
3578;DHT22;1803;48.494;9.696;2022-07-22T16:41:23;28.40;52.80
3578;DHT22;1803;48.494;9.696;2022-07-22T16:43:49;28.50;52.10
3578;DHT22;1803;48.494;9.696;2022-07-22T16:46:14;28.50;52.00
3578;DHT22;1803;48.494;9.696;2022-07-22T16:48:39;28.50;52.50
3578;DHT22;1803;48.494;9.696;2022-07-22T16:51:05;28.50;52.70
3578;DHT22;1803;48.494;9.696;2022-07-22T16:53:30;28.60;52.90
3578;DHT22;1803;48.494;9.696;2022-07-22T16:55:57;28.60;52.30
3578;DHT22;1803;48.494;9.696;2022-07-22T16:58:23;28.60;52.40
3578;DHT22;1803;48.494;9.696;2022-07-22T17:00:48;28.60;52.50
3578;DHT22;1803;48.494;9.696;2022-07-22T17:03:14;28.60;51.90
3578;DHT22;1803;48.494;9.696;2022-07-22T17:05:39;28.50;53.50
3578;DHT22;1803;48.494;9.696;2022-07-22T17:08:05;28.50;52.50
3578;DHT22;1803;48.494;9.696;2022-07-22T17:10:30;28.50;52.30
3578;DHT22;1803;48.494;9.696;2022-07-22T17:12:55;28.50;52.30
3578;DHT22;1803;48.494;9.696;2022-07-22T17:15:21;28.50;52.90
3578;DHT22;1803;48.494;9.696;2022-07-22T17:17:46;28.40;52.40
3578;DHT22;1803;48.494;9.696;2022-07-22T17:20:12;28.40;52.00
3578;DHT22;1803;48.494;9.696;2022-07-22T17:22:41;28.40;53.00
3578;DHT22;1803;48.494;9.696;2022-07-22T17:25:06;28.40;52.50
3578;DHT22;1803;48.494;9.696;2022-07-22T17:27:32;28.40;53.30
3578;DHT22;1803;48.494;9.696;2022-07-22T17:29:58;28.40;53.70
3578;DHT22;1803;48.494;9.696;2022-07-22T17:32:23;28.30;52.50
3578;DHT22;1803;48.494;9.696;2022-07-22T17:34:49;28.20;52.80
3578;DHT22;1803;48.494;9.696;2022-07-22T17:37:14;28.20;53.20
3578;DHT22;1803;48.494;9.696;2022-07-22T17:39:40;28.10;53.70
3578;DHT22;1803;48.494;9.696;2022-07-22T17:42:06;28.00;54.10
3578;DHT22;1803;48.494;9.696;2022-07-22T17:44:31;27.90;54.30
3578;DHT22;1803;48.494;9.696;2022-07-22T17:46:58;27.80;54.70
3578;DHT22;1803;48.494;9.696;2022-07-22T17:49:23;27.70;54.70
3578;DHT22;1803;48.494;9.696;2022-07-22T17:51:49;27.50;54.30
3578;DHT22;1803;48.494;9.696;2022-07-22T17:54:14;27.40;55.10
3578;DHT22;1803;48.494;9.696;2022-07-22T17:56:40;27.30;55.30
3578;DHT22;1803;48.494;9.696;2022-07-22T17:59:05;27.20;55.70
3578;DHT22;1803;48.494;9.696;2022-07-22T18:01:31;27.10;55.90
3578;DHT22;1803;48.494;9.696;2022-07-22T18:03:56;27.00;55.80
3578;DHT22;1803;48.494;9.696;2022-07-22T18:06:22;26.90;55.90
3578;DHT22;1803;48.494;9.696;2022-07-22T18:08:47;26.90;56.20
3578;DHT22;1803;48.494;9.696;2022-07-22T18:11:13;26.80;56.50
3578;DHT22;1803;48.494;9.696;2022-07-22T18:13:39;26.80;56.60
3578;DHT22;1803;48.494;9.696;2022-07-22T18:16:04;26.70;57.00
3578;DHT22;1803;48.494;9.696;2022-07-22T18:18:30;26.70;56.90
3578;DHT22;1803;48.494;9.696;2022-07-22T18:20:55;26.60;56.90
3578;DHT22;1803;48.494;9.696;2022-07-22T18:23:21;26.50;57.10
3578;DHT22;1803;48.494;9.696;2022-07-22T18:25:46;26.50;58.10
3578;DHT22;1803;48.494;9.696;2022-07-22T18:28:12;26.30;57.80
3578;DHT22;1803;48.494;9.696;2022-07-22T18:30:37;26.30;59.00
3578;DHT22;1803;48.494;9.696;2022-07-22T18:33:02;26.10;62.90
3578;DHT22;1803;48.494;9.696;2022-07-22T18:35:28;26.00;64.70
3578;DHT22;1803;48.494;9.696;2022-07-22T18:37:53;25.80;66.30
3578;DHT22;1803;48.494;9.696;2022-07-22T18:40:19;25.70;69.80
3578;DHT22;1803;48.494;9.696;2022-07-22T18:42:44;25.60;72.20
3578;DHT22;1803;48.494;9.696;2022-07-22T18:45:10;25.40;73.90
3578;DHT22;1803;48.494;9.696;2022-07-22T18:47:35;25.30;74.70
3578;DHT22;1803;48.494;9.696;2022-07-22T18:50:01;25.20;74.90
3578;DHT22;1803;48.494;9.696;2022-07-22T18:52:26;25.10;76.40
3578;DHT22;1803;48.494;9.696;2022-07-22T18:54:54;25.00;76.10
3578;DHT22;1803;48.494;9.696;2022-07-22T18:57:19;24.90;76.60
3578;DHT22;1803;48.494;9.696;2022-07-22T18:59:45;24.80;77.80
3578;DHT22;1803;48.494;9.696;2022-07-22T19:02:10;24.70;78.20
3578;DHT22;1803;48.494;9.696;2022-07-22T19:04:36;24.60;78.70
3578;DHT22;1803;48.494;9.696;2022-07-22T19:07:02;24.50;79.60